createdAt,value
2017-09-12T00:02:27.154Z,70.49
2017-09-12T00:04:54.530Z,71.10
2017-09-12T00:07:21.913Z,70.85
2017-09-12T00:09:49.298Z,71.03
2017-09-12T00:12:16.678Z,71.22
2017-09-12T00:14:44.078Z,71.23
2017-09-12T00:17:11.458Z,70.53
2017-09-12T00:19:38.841Z,70.95
2017-09-12T00:22:06.233Z,70.39
2017-09-12T00:24:33.611Z,70.62
2017-09-12T00:27:01.010Z,71.04
2017-09-12T00:29:28.399Z,71.67
2017-09-12T00:31:55.870Z,71.04
2017-09-12T00:34:23.259Z,70.95
2017-09-12T00:36:50.654Z,71.38
2017-09-12T00:39:18.046Z,70.96
2017-09-12T00:41:45.431Z,70.70
2017-09-12T00:44:12.817Z,71.22
2017-09-12T00:46:41.106Z,71.67
2017-09-12T00:49:08.487Z,71.00
2017-09-12T00:51:35.938Z,71.30
2017-09-12T00:54:03.327Z,70.73
2017-09-12T00:56:30.722Z,70.58
2017-09-12T00:58:58.138Z,70.81
2017-09-12T01:01:25.535Z,71.23
2017-09-12T01:03:52.923Z,71.37
2017-09-12T01:06:20.313Z,71.70
2017-09-12T01:08:47.694Z,72.97
2017-09-12T01:11:15.084Z,72.64
2017-09-12T01:13:42.458Z,72.14
2017-09-12T01:16:09.841Z,72.98
2017-09-12T01:18:37.222Z,72.36
2017-09-12T01:21:04.603Z,71.95
2017-09-12T01:23:31.982Z,71.05
2017-09-12T01:25:59.370Z,72.98
2017-09-12T01:28:26.766Z,73.18
2017-09-12T01:30:54.154Z,73.81
2017-09-12T01:33:21.542Z,74.05
2017-09-12T01:35:48.931Z,74.09
2017-09-12T01:38:16.385Z,73.86
2017-09-12T01:40:43.766Z,73.31
2017-09-12T01:43:11.150Z,73.47
2017-09-12T01:45:38.535Z,73.64
2017-09-12T01:48:05.933Z,73.36
2017-09-12T01:50:33.302Z,73.49
2017-09-12T01:53:00.691Z,73.25
2017-09-12T01:55:28.071Z,73.74
2017-09-12T01:57:55.530Z,73.25
2017-09-12T02:00:22.927Z,72.79
2017-09-12T02:02:50.334Z,72.58
2017-09-12T02:05:17.719Z,71.93
2017-09-12T02:07:45.106Z,72.15
2017-09-12T02:10:12.486Z,71.23
2017-09-12T02:12:39.883Z,71.69
2017-09-12T02:15:07.267Z,71.63
2017-09-12T02:17:34.654Z,71.61
2017-09-12T02:20:02.036Z,71.89
2017-09-12T02:22:29.417Z,71.78
2017-09-12T02:24:56.809Z,71.75
2017-09-12T02:27:24.190Z,71.90
2017-09-12T02:29:51.574Z,72.14
2017-09-12T02:32:18.971Z,72.56
2017-09-12T02:34:46.367Z,71.78
2017-09-12T02:37:13.747Z,72.85
2017-09-12T02:39:41.135Z,72.85
2017-09-12T02:42:08.520Z,72.69
2017-09-12T02:44:35.904Z,73.03
2017-09-12T02:47:03.282Z,72.34
2017-09-12T02:49:30.682Z,72.36
2017-09-12T02:51:58.076Z,71.85
2017-09-12T02:54:25.450Z,71.60
2017-09-12T02:56:52.840Z,71.74
2017-09-12T02:59:20.219Z,72.13
2017-09-12T03:01:47.634Z,71.25
2017-09-12T03:04:15.011Z,71.02
2017-09-12T03:06:42.402Z,71.38
2017-09-12T03:09:09.786Z,71.96
2017-09-12T03:11:37.287Z,71.64
2017-09-12T03:14:05.095Z,71.36
2017-09-12T03:16:32.482Z,71.39
2017-09-12T03:18:59.967Z,71.31
2017-09-12T03:21:27.351Z,71.04
2017-09-12T03:23:54.734Z,71.72
2017-09-12T03:26:23.169Z,70.92
2017-09-12T03:28:50.550Z,71.17
2017-09-12T03:31:17.938Z,72.71
2017-09-12T03:33:45.323Z,72.43
2017-09-12T03:36:18.530Z,72.62
2017-09-12T03:38:46.171Z,72.08
2017-09-12T03:41:13.563Z,72.16
2017-09-12T03:43:40.951Z,72.21
2017-09-12T03:46:08.338Z,71.73
2017-09-12T03:48:35.795Z,71.98
2017-09-12T03:51:03.183Z,70.95
2017-09-12T03:53:30.595Z,71.81
2017-09-12T03:55:57.981Z,71.84
2017-09-12T03:58:25.380Z,71.76
2017-09-12T04:00:52.878Z,71.37
2017-09-12T04:03:20.270Z,72.37
2017-09-12T04:05:47.658Z,72.19
2017-09-12T04:08:15.059Z,72.45
2017-09-12T04:10:42.434Z,72.61
2017-09-12T04:13:09.823Z,72.69
2017-09-12T04:15:37.205Z,73.10
2017-09-12T04:18:04.596Z,72.81
2017-09-12T04:20:31.974Z,72.57
2017-09-12T04:22:59.364Z,72.53
2017-09-12T04:25:26.747Z,71.78
2017-09-12T04:27:54.144Z,71.87
2017-09-12T04:30:21.526Z,71.71
2017-09-12T04:32:48.918Z,71.66
2017-09-12T04:35:16.306Z,71.42
2017-09-12T04:37:43.695Z,71.50
2017-09-12T04:40:11.071Z,71.56
2017-09-12T04:42:38.506Z,71.33
2017-09-12T04:45:05.886Z,70.90
2017-09-12T04:47:33.279Z,71.61
2017-09-12T04:50:00.662Z,71.04
2017-09-12T04:52:28.050Z,71.14
2017-09-12T04:54:55.434Z,72.41
2017-09-12T04:57:22.845Z,72.51
2017-09-12T04:59:50.232Z,72.48
2017-09-12T05:02:17.616Z,72.18
2017-09-12T05:04:45.008Z,72.41
2017-09-12T05:07:12.386Z,72.26
2017-09-12T05:09:39.795Z,73.55
2017-09-12T05:12:07.179Z,72.86
2017-09-12T05:14:34.564Z,72.82
2017-09-12T05:17:01.951Z,73.66
2017-09-12T05:19:29.582Z,72.91
2017-09-12T05:21:56.966Z,73.34
2017-09-12T05:24:24.396Z,73.52
2017-09-12T05:26:51.775Z,74.09
2017-09-12T05:29:19.170Z,73.27
2017-09-12T05:31:46.566Z,73.40
2017-09-12T05:34:13.965Z,72.52
2017-09-12T05:36:41.351Z,73.27
2017-09-12T05:39:08.738Z,73.14
2017-09-12T05:41:36.126Z,73.67
2017-09-12T05:44:03.513Z,74.01
2017-09-12T05:46:30.900Z,74.12
2017-09-12T05:48:58.278Z,73.66
2017-09-12T05:51:25.670Z,72.82
2017-09-12T05:53:53.122Z,72.89
2017-09-12T05:56:20.523Z,73.37
2017-09-12T05:58:47.932Z,73.19
2017-09-12T06:01:15.335Z,73.65
2017-09-12T06:03:42.742Z,74.09
2017-09-12T06:06:10.131Z,74.63
2017-09-12T06:08:37.512Z,74.68
2017-09-12T06:11:04.906Z,74.78
2017-09-12T06:13:32.298Z,74.16
2017-09-12T06:15:59.690Z,74.01
2017-09-12T06:18:27.077Z,73.60
2017-09-12T06:20:54.470Z,74.29
2017-09-12T06:23:21.855Z,74.62
2017-09-12T06:25:49.254Z,74.68
2017-09-12T06:28:16.645Z,74.50
2017-09-12T06:30:44.038Z,73.81
2017-09-12T06:33:11.429Z,73.09
2017-09-12T06:35:38.811Z,73.84
2017-09-12T06:38:06.186Z,73.73
2017-09-12T06:40:33.671Z,73.19
2017-09-12T06:43:01.062Z,73.48
2017-09-12T06:45:28.455Z,73.52
2017-09-12T06:47:55.862Z,74.00
2017-09-12T06:50:23.247Z,73.65
2017-09-12T06:52:50.642Z,73.15
2017-09-12T06:55:18.039Z,72.82
2017-09-12T06:57:45.454Z,72.79
2017-09-12T07:00:12.851Z,72.15
2017-09-12T07:02:40.238Z,71.94
2017-09-12T07:05:09.615Z,72.20
2017-09-12T07:07:37.023Z,72.30
2017-09-12T07:10:04.479Z,72.37
2017-09-12T07:12:31.938Z,72.24
2017-09-12T07:14:59.328Z,72.44
2017-09-12T07:17:26.723Z,72.25
2017-09-12T07:19:54.121Z,71.92
2017-09-12T07:22:21.506Z,72.34
2017-09-12T07:24:48.891Z,71.90
2017-09-12T07:27:16.379Z,71.79
2017-09-12T07:29:43.766Z,70.93
2017-09-12T07:32:11.166Z,71.62
2017-09-12T07:34:38.557Z,71.84
2017-09-12T07:37:05.955Z,72.43
2017-09-12T07:39:33.354Z,71.81
2017-09-12T07:42:00.750Z,71.59
2017-09-12T07:44:28.162Z,72.00
2017-09-12T07:46:55.550Z,72.44
2017-09-12T07:49:22.934Z,72.32
2017-09-12T07:51:50.331Z,72.65
2017-09-12T07:54:17.718Z,72.68
2017-09-12T07:56:45.111Z,72.55
2017-09-12T07:59:12.490Z,71.72
2017-09-12T08:01:39.904Z,72.05
2017-09-12T08:04:07.275Z,72.25
2017-09-12T08:06:34.676Z,72.64
2017-09-12T08:09:02.058Z,72.89
2017-09-12T08:11:29.451Z,71.82
2017-09-12T08:13:56.846Z,71.62
2017-09-12T08:16:24.235Z,71.10
2017-09-12T08:18:51.621Z,71.74
2017-09-12T08:21:19.009Z,71.08
2017-09-12T08:23:46.403Z,71.50
2017-09-12T08:26:16.565Z,71.94
2017-09-12T08:28:44.950Z,71.78
2017-09-12T08:31:12.338Z,72.15
2017-09-12T08:33:39.731Z,71.40
2017-09-12T08:36:07.124Z,71.53
2017-09-12T08:38:34.515Z,73.32
2017-09-12T08:41:01.968Z,73.58
2017-09-12T08:43:29.430Z,74.38
2017-09-12T08:45:56.813Z,74.80
2017-09-12T08:48:24.215Z,74.69
2017-09-12T08:50:51.603Z,74.91
2017-09-12T08:53:18.991Z,74.51
2017-09-12T08:55:46.374Z,75.08
2017-09-12T08:58:13.778Z,75.59
2017-09-12T09:00:41.169Z,75.40
2017-09-12T09:03:08.546Z,75.81
2017-09-12T09:05:35.946Z,73.39
2017-09-12T09:08:03.326Z,72.34
2017-09-12T09:10:30.715Z,72.33
2017-09-12T09:12:58.102Z,70.37
2017-09-12T09:15:25.498Z,70.03
2017-09-12T09:17:52.882Z,67.71
2017-09-12T09:20:20.275Z,60.88
2017-09-12T09:22:47.646Z,62.79
2017-09-12T09:25:15.039Z,61.69
2017-09-12T09:27:42.429Z,60.74
2017-09-12T09:30:09.811Z,60.20
2017-09-12T09:32:37.230Z,61.01
2017-09-12T09:35:04.624Z,63.84
2017-09-12T09:37:32.013Z,66.19
2017-09-12T09:39:59.405Z,67.93
2017-09-12T09:42:26.790Z,68.91
2017-09-12T09:44:54.186Z,67.48
2017-09-12T09:47:21.566Z,67.83
2017-09-12T09:49:48.974Z,66.45
2017-09-12T09:52:16.363Z,62.73
2017-09-12T09:54:43.743Z,60.04
2017-09-12T09:57:11.140Z,60.30
2017-09-12T09:59:38.523Z,60.66
2017-09-12T10:02:05.917Z,60.78
2017-09-12T10:04:33.308Z,62.12
2017-09-12T10:07:00.703Z,61.16
2017-09-12T10:09:28.091Z,62.82
2017-09-12T10:11:55.500Z,63.50
2017-09-12T10:14:22.922Z,63.76
2017-09-12T10:16:50.307Z,61.48
2017-09-12T10:19:17.682Z,60.12
2017-09-12T10:21:45.094Z,60.02
2017-09-12T10:24:12.478Z,59.10
2017-09-12T10:26:39.881Z,58.51
2017-09-12T10:29:07.259Z,57.95
2017-09-12T10:31:34.650Z,58.22
2017-09-12T10:34:02.034Z,59.63
2017-09-12T10:36:29.426Z,61.27
2017-09-12T10:38:56.806Z,63.28
2017-09-12T10:41:24.197Z,63.66
2017-09-12T10:43:51.614Z,62.46
2017-09-12T10:46:18.994Z,62.69
2017-09-12T10:48:46.386Z,62.80
2017-09-12T10:51:13.778Z,62.78
2017-09-12T10:53:41.214Z,62.96
2017-09-12T10:56:08.602Z,62.25
2017-09-12T10:58:35.987Z,60.99
2017-09-12T11:01:03.381Z,58.86
2017-09-12T11:03:30.770Z,58.16
2017-09-12T11:05:59.062Z,56.41
2017-09-12T11:08:26.452Z,55.40
2017-09-12T11:10:53.826Z,55.21
2017-09-12T11:13:21.218Z,53.66
2017-09-12T11:15:48.599Z,51.76
2017-09-12T11:18:15.987Z,52.36
2017-09-12T11:20:43.370Z,53.93
2017-09-12T11:23:10.750Z,51.23
2017-09-12T11:25:38.131Z,52.34
2017-09-12T11:28:05.518Z,51.88
2017-09-12T11:30:32.911Z,51.83
2017-09-12T11:33:00.294Z,52.10
2017-09-12T11:35:27.683Z,49.85
2017-09-12T11:37:55.067Z,51.16
2017-09-12T11:40:22.454Z,50.63
2017-09-12T11:42:49.866Z,51.41
2017-09-12T11:45:17.265Z,49.78
2017-09-12T11:47:44.634Z,49.70
2017-09-12T11:50:12.051Z,49.10
2017-09-12T11:52:39.437Z,49.55
2017-09-12T11:55:06.823Z,48.28
2017-09-12T11:57:34.211Z,50.64
2017-09-12T12:00:01.635Z,48.70
2017-09-12T12:02:29.099Z,48.43
2017-09-12T12:04:57.423Z,47.74
2017-09-12T12:07:24.830Z,48.57
2017-09-12T12:09:52.219Z,48.72
2017-09-12T12:12:19.607Z,49.65
2017-09-12T12:14:47.824Z,50.58
2017-09-12T12:17:15.207Z,51.08
2017-09-12T12:19:42.634Z,53.08
2017-09-12T12:22:10.018Z,51.21
2017-09-12T12:24:37.445Z,51.11
2017-09-12T12:27:04.827Z,50.45
2017-09-12T12:29:32.206Z,51.60
2017-09-12T12:31:59.608Z,51.73
2017-09-12T12:34:26.994Z,48.84
2017-09-12T12:36:54.379Z,47.24
2017-09-12T12:39:21.770Z,49.75
2017-09-12T12:41:49.232Z,47.61
2017-09-12T12:44:16.611Z,48.11
2017-09-12T12:46:44.000Z,47.91
2017-09-12T12:49:11.396Z,48.54
2017-09-12T12:51:38.787Z,48.08
2017-09-12T12:54:06.162Z,49.95
2017-09-12T12:56:33.668Z,48.86
2017-09-12T12:59:01.051Z,50.56
2017-09-12T13:01:28.451Z,49.78
2017-09-12T13:03:55.855Z,47.80
2017-09-12T13:06:23.245Z,48.79
2017-09-12T13:08:50.623Z,49.15
2017-09-12T13:11:18.026Z,47.96
2017-09-12T13:13:45.398Z,48.32
2017-09-12T13:16:12.786Z,48.00
2017-09-12T13:18:40.171Z,48.17
2017-09-12T13:21:07.623Z,49.48
2017-09-12T13:23:35.015Z,52.20
2017-09-12T13:26:02.415Z,52.67
2017-09-12T13:28:29.811Z,53.57
2017-09-12T13:30:57.202Z,55.14
2017-09-12T13:33:24.596Z,56.91
2017-09-12T13:35:52.062Z,58.36
2017-09-12T13:38:19.450Z,58.36
2017-09-12T13:40:46.838Z,60.15
2017-09-12T13:43:14.218Z,64.64
2017-09-12T13:45:41.686Z,65.93
2017-09-12T13:48:09.079Z,65.08
2017-09-12T13:50:36.460Z,67.19
2017-09-12T13:53:03.847Z,68.21
2017-09-12T13:55:31.232Z,67.91
2017-09-12T13:57:58.620Z,69.62
2017-09-12T14:00:25.999Z,71.28
2017-09-12T14:02:53.390Z,72.04
2017-09-12T14:05:20.771Z,74.09
2017-09-12T14:07:48.166Z,72.94
2017-09-12T14:10:15.548Z,73.96
2017-09-12T14:12:42.935Z,73.82
2017-09-12T14:15:10.328Z,73.74
2017-09-12T14:17:37.711Z,75.51
2017-09-12T14:20:05.171Z,75.85
2017-09-12T14:22:32.622Z,73.43
2017-09-12T14:25:00.030Z,74.11
2017-09-12T14:27:27.410Z,72.72
2017-09-12T14:29:54.811Z,72.19
2017-09-12T14:32:22.192Z,70.44
2017-09-12T14:34:49.583Z,70.30
2017-09-12T14:37:16.962Z,68.41
2017-09-12T14:39:44.351Z,69.23
2017-09-12T14:42:11.735Z,68.11
2017-09-12T14:44:39.118Z,67.09
2017-09-12T14:47:06.502Z,67.59
2017-09-12T14:49:33.895Z,67.87
2017-09-12T14:52:01.274Z,66.51
2017-09-12T14:54:28.675Z,64.98
2017-09-12T14:56:56.048Z,66.23
2017-09-12T14:59:23.430Z,66.72
2017-09-12T15:01:50.914Z,66.83
2017-09-12T15:04:18.306Z,66.31
2017-09-12T15:06:45.692Z,66.09
2017-09-12T15:09:13.077Z,68.33
2017-09-12T15:11:40.459Z,66.19
2017-09-12T15:14:07.851Z,65.73
2017-09-12T15:16:35.234Z,65.79
2017-09-12T15:19:02.630Z,65.73
2017-09-12T15:21:30.018Z,64.11
2017-09-12T15:23:57.399Z,64.86
2017-09-12T15:26:24.874Z,64.89
2017-09-12T15:28:52.334Z,63.38
2017-09-12T15:31:19.722Z,62.42
2017-09-12T15:33:47.108Z,62.75
2017-09-12T15:36:14.594Z,61.22
2017-09-12T15:38:41.980Z,62.18
2017-09-12T15:41:09.371Z,62.27
2017-09-12T15:43:36.750Z,62.16
2017-09-12T15:46:04.226Z,60.49
2017-09-12T15:48:31.611Z,61.40
2017-09-12T15:50:58.994Z,62.43
2017-09-12T15:53:26.387Z,61.28
2017-09-12T15:55:53.771Z,62.13
2017-09-12T15:58:21.175Z,62.51
2017-09-12T16:00:48.562Z,59.62
2017-09-12T16:03:15.948Z,62.36
2017-09-12T16:05:43.332Z,61.98
2017-09-12T16:08:10.825Z,61.16
2017-09-12T16:10:38.207Z,60.96
2017-09-12T16:13:05.602Z,61.34
2017-09-12T16:15:32.993Z,62.57
2017-09-12T16:18:00.382Z,61.69
2017-09-12T16:20:27.772Z,61.87
2017-09-12T16:22:55.162Z,62.01
2017-09-12T16:25:22.620Z,61.59
2017-09-12T16:27:50.082Z,61.23
2017-09-12T16:30:17.458Z,60.87
2017-09-12T16:32:44.842Z,60.90
2017-09-12T16:35:12.226Z,61.14
2017-09-12T16:37:39.699Z,61.34
2017-09-12T16:40:07.078Z,62.90
2017-09-12T16:42:34.479Z,62.79
2017-09-12T16:45:01.867Z,63.75
2017-09-12T16:47:29.243Z,66.82
2017-09-12T16:49:56.633Z,65.45
2017-09-12T16:52:24.015Z,66.56
2017-09-12T16:54:51.412Z,66.80
2017-09-12T16:57:18.798Z,66.59
2017-09-12T16:59:46.185Z,67.35
2017-09-12T17:02:13.572Z,69.25
2017-09-12T17:04:40.962Z,69.31
2017-09-12T17:07:08.422Z,68.05
2017-09-12T17:09:35.816Z,69.74
2017-09-12T17:12:03.194Z,69.39
2017-09-12T17:14:30.578Z,69.07
2017-09-12T17:16:57.966Z,68.19
2017-09-12T17:19:25.346Z,67.11
2017-09-12T17:21:52.732Z,66.83
2017-09-12T17:24:20.122Z,67.42
2017-09-12T17:26:47.511Z,67.49
2017-09-12T17:29:14.929Z,67.12
2017-09-12T17:31:42.399Z,66.72
2017-09-12T17:34:09.838Z,67.41
2017-09-12T17:36:37.221Z,66.84
2017-09-12T17:39:04.598Z,66.22
2017-09-12T17:41:31.994Z,65.73
2017-09-12T17:43:59.370Z,65.04
2017-09-12T17:46:26.752Z,66.70
2017-09-12T17:48:54.138Z,67.59
2017-09-12T17:51:21.601Z,67.83
2017-09-12T17:53:48.982Z,67.99
2017-09-12T17:56:16.382Z,68.15
2017-09-12T17:58:43.762Z,67.86
2017-09-12T18:01:11.157Z,68.30
2017-09-12T18:03:38.536Z,68.42
2017-09-12T18:06:05.922Z,70.19
2017-09-12T18:08:33.311Z,69.30
2017-09-12T18:11:00.692Z,69.34
2017-09-12T18:13:28.089Z,68.60
2017-09-12T18:15:55.543Z,69.27
2017-09-12T18:18:22.922Z,69.13
2017-09-12T18:20:50.322Z,69.30
2017-09-12T18:23:17.708Z,69.57
2017-09-12T18:25:45.088Z,70.17
2017-09-12T18:28:12.477Z,71.21
2017-09-12T18:30:39.859Z,72.30
2017-09-12T18:33:07.250Z,72.97
2017-09-12T18:35:34.702Z,73.76
2017-09-12T18:38:02.100Z,73.36
2017-09-12T18:40:29.505Z,73.30
2017-09-12T18:42:56.890Z,72.64
2017-09-12T18:45:24.271Z,73.62
2017-09-12T18:47:51.663Z,72.97
2017-09-12T18:50:19.156Z,72.37
2017-09-12T18:52:46.558Z,72.79
2017-09-12T18:55:13.948Z,73.26
2017-09-12T18:57:41.335Z,74.52
2017-09-12T19:00:08.723Z,73.22
2017-09-12T19:02:36.110Z,73.20
2017-09-12T19:05:03.499Z,71.50
2017-09-12T19:07:30.891Z,72.30
2017-09-12T19:09:58.275Z,72.92
2017-09-12T19:12:25.714Z,72.74
2017-09-12T19:14:53.082Z,72.91
2017-09-12T19:17:20.478Z,72.08
2017-09-12T19:19:47.862Z,72.76
2017-09-12T19:22:15.251Z,72.45
2017-09-12T19:24:42.708Z,73.79
2017-09-12T19:27:10.102Z,73.35
2017-09-12T19:29:37.499Z,73.78
2017-09-12T19:32:05.003Z,75.30
2017-09-12T19:34:32.446Z,74.67
2017-09-12T19:36:59.842Z,75.00
2017-09-12T19:39:27.230Z,75.45
2017-09-12T19:41:54.637Z,75.89
2017-09-12T19:44:22.024Z,76.27
2017-09-12T19:46:49.401Z,76.46
2017-09-12T19:49:16.798Z,76.43
2017-09-12T19:51:44.198Z,76.51
2017-09-12T19:54:11.598Z,77.52
2017-09-12T19:56:38.983Z,76.93
2017-09-12T19:59:06.387Z,76.99
2017-09-12T20:01:33.779Z,76.06
2017-09-12T20:04:01.171Z,74.81
2017-09-12T20:06:28.572Z,73.98
2017-09-12T20:08:55.982Z,73.27
2017-09-12T20:11:23.367Z,73.44
2017-09-12T20:13:50.784Z,74.20
2017-09-12T20:16:18.163Z,73.18
2017-09-12T20:18:45.632Z,74.67
2017-09-12T20:21:13.027Z,75.19
2017-09-12T20:23:40.449Z,74.57
2017-09-12T20:26:07.834Z,75.65
2017-09-12T20:28:35.244Z,75.82
2017-09-12T20:31:02.647Z,76.18
2017-09-12T20:33:30.063Z,75.11
2017-09-12T20:35:57.456Z,75.77
2017-09-12T20:38:24.859Z,76.56
2017-09-12T20:40:52.258Z,75.60
2017-09-12T20:43:19.694Z,75.35
2017-09-12T20:45:47.082Z,75.40
2017-09-12T20:48:14.467Z,75.74
2017-09-12T20:50:41.859Z,76.77
2017-09-12T20:53:09.243Z,75.97
2017-09-12T20:55:36.642Z,76.70
2017-09-12T20:58:04.024Z,77.03
2017-09-12T21:00:31.423Z,76.94
2017-09-12T21:02:58.815Z,78.20
2017-09-12T21:05:26.208Z,78.00
2017-09-12T21:07:55.539Z,78.61
2017-09-12T21:10:22.930Z,79.67
2017-09-12T21:12:50.318Z,79.61
2017-09-12T21:15:17.714Z,80.36
2017-09-12T21:17:45.227Z,79.64
2017-09-12T21:20:12.665Z,79.40
2017-09-12T21:22:40.058Z,78.84
2017-09-12T21:25:07.450Z,79.32
2017-09-12T21:27:34.849Z,80.61
2017-09-12T21:30:02.243Z,81.27
2017-09-12T21:32:29.628Z,81.85
2017-09-12T21:34:57.104Z,82.11
2017-09-12T21:37:24.486Z,82.42
2017-09-12T21:39:51.882Z,81.76
2017-09-12T21:42:19.273Z,82.50
2017-09-12T21:44:46.674Z,81.99
2017-09-12T21:47:14.058Z,81.35
2017-09-12T21:49:41.450Z,82.13
2017-09-12T21:52:08.856Z,80.87
2017-09-12T21:54:36.259Z,82.17
2017-09-12T21:57:03.650Z,81.90
2017-09-12T21:59:31.043Z,80.98
2017-09-12T22:01:58.503Z,81.21
2017-09-12T22:04:25.894Z,81.60
2017-09-12T22:06:53.297Z,81.43
2017-09-12T22:09:20.674Z,80.49
2017-09-12T22:11:48.071Z,80.61
2017-09-12T22:14:15.470Z,79.69
2017-09-12T22:16:42.946Z,80.55
2017-09-12T22:19:10.343Z,79.75
2017-09-12T22:21:37.735Z,79.22
2017-09-12T22:24:05.125Z,80.60
2017-09-12T22:26:32.523Z,79.29
2017-09-12T22:28:59.919Z,78.47
2017-09-12T22:31:27.410Z,77.89
2017-09-12T22:33:54.795Z,78.35
2017-09-12T22:36:22.193Z,77.64
2017-09-12T22:38:49.591Z,77.42
2017-09-12T22:41:16.975Z,79.14
2017-09-12T22:43:44.446Z,78.84
2017-09-12T22:46:11.830Z,79.37
2017-09-12T22:48:39.229Z,78.58
2017-09-12T22:51:06.611Z,78.26
2017-09-12T22:53:34.070Z,78.02
2017-09-12T22:56:01.463Z,79.27
2017-09-12T22:58:28.882Z,79.40
2017-09-12T23:00:56.338Z,79.68
2017-09-12T23:03:23.794Z,79.58
2017-09-12T23:05:51.171Z,78.46
2017-09-12T23:08:18.555Z,79.71
2017-09-12T23:10:45.959Z,79.04
2017-09-12T23:13:13.359Z,80.47
2017-09-12T23:15:40.772Z,79.68
2017-09-12T23:18:08.160Z,80.80
2017-09-12T23:20:35.543Z,80.56
2017-09-12T23:23:02.936Z,81.38
2017-09-12T23:25:30.398Z,80.54
2017-09-12T23:27:57.790Z,80.97
2017-09-12T23:30:25.178Z,82.04
2017-09-12T23:32:52.577Z,82.15
2017-09-12T23:35:19.959Z,82.11
2017-09-12T23:37:47.371Z,81.98
2017-09-12T23:40:14.828Z,81.84
2017-09-12T23:42:42.210Z,81.90
2017-09-12T23:45:09.606Z,81.85
2017-09-12T23:47:37.090Z,81.87
2017-09-12T23:50:04.474Z,82.84
2017-09-12T23:52:31.863Z,82.37
2017-09-12T23:54:59.267Z,82.06
2017-09-12T23:57:26.656Z,82.57
2017-09-12T23:59:54.042Z,82.79
